createdAt,value
2019-04-07T00:01:53.242Z,100744.69
2019-04-07T00:04:21.611Z,100748.07
2019-04-07T00:06:49.742Z,100753.67
2019-04-07T00:09:17.949Z,100752.22
2019-04-07T00:11:46.146Z,100744.69
2019-04-07T00:14:14.355Z,100749.73
2019-04-07T00:16:42.693Z,100750.94
2019-04-07T00:19:11.135Z,100752.25
2019-04-07T00:21:39.617Z,100743.56
2019-04-07T00:24:07.798Z,100753.25
2019-04-07T00:26:36.006Z,100752.09
2019-04-07T00:29:04.767Z,100746.63
2019-04-07T00:31:32.983Z,100746.36
2019-04-07T00:34:01.611Z,100747.06
2019-04-07T00:36:30.024Z,100741.91
2019-04-07T00:38:58.222Z,100736.09
2019-04-07T00:41:26.463Z,100732.63
2019-04-07T00:43:54.914Z,100734.94
2019-04-07T00:46:23.373Z,100733.57
2019-04-07T00:48:51.532Z,100736.65
2019-04-07T00:51:20.579Z,100738.52
2019-04-07T00:53:48.822Z,100736.08
2019-04-07T00:56:17.016Z,100739.33
2019-04-07T00:58:45.678Z,100742.05
2019-04-07T01:01:15.466Z,100740.09
2019-04-07T01:03:43.689Z,100747.62
2019-04-07T01:06:12.926Z,100734.80
2019-04-07T01:08:41.555Z,100737.88
2019-04-07T01:11:09.842Z,100746.22
2019-04-07T01:13:38.557Z,100747.34
2019-04-07T01:16:06.728Z,100742.89
2019-04-07T01:18:35.571Z,100743.85
2019-04-07T01:21:03.859Z,100745.92
2019-04-07T01:23:32.527Z,100742.13
2019-04-07T01:26:00.960Z,100742.78
2019-04-07T01:28:29.512Z,100740.77
2019-04-07T01:30:59.030Z,100734.52
2019-04-07T01:33:27.751Z,100730.84
2019-04-07T01:35:56.434Z,100732.09
2019-04-07T01:38:24.676Z,100736.80
2019-04-07T01:40:59.975Z,100730.98
2019-04-07T01:43:38.449Z,100732.72
2019-04-07T01:46:11.088Z,100726.11
2019-04-07T01:48:43.641Z,100718.64
2019-04-07T01:51:13.541Z,100723.38
2019-04-07T01:53:48.866Z,100727.41
2019-04-07T01:56:27.305Z,100732.70
2019-04-07T01:59:05.623Z,100729.92
2019-04-07T02:01:41.722Z,100720.93
2019-04-07T02:04:28.074Z,100725.60
2019-04-07T02:07:16.228Z,100724.42
2019-04-07T02:09:46.851Z,100720.06
2019-04-07T02:12:22.431Z,100722.85
2019-04-07T02:14:58.901Z,100717.62
2019-04-07T02:17:31.763Z,100720.67
2019-04-07T02:20:07.826Z,100717.88
2019-04-07T02:22:38.607Z,100714.73
2019-04-07T02:25:24.054Z,100719.71
2019-04-07T02:27:56.899Z,100714.98
2019-04-07T02:30:44.836Z,100710.94
2019-04-07T02:33:24.365Z,100713.48
2019-04-07T02:36:21.390Z,100716.62
2019-04-07T02:38:44.128Z,100716.08
2019-04-07T02:41:19.941Z,100715.92
2019-04-07T02:44:06.854Z,100710.78
2019-04-07T02:46:38.058Z,100714.20
2019-04-07T02:49:10.910Z,100714.56
2019-04-07T02:51:40.724Z,100718.37
2019-04-07T02:54:10.571Z,100715.84
2019-04-07T02:56:49.471Z,100715.84
2019-04-07T02:59:29.204Z,100714.73
2019-04-07T03:02:15.363Z,100714.78
2019-04-07T03:04:48.104Z,100719.88
2019-04-07T03:07:17.956Z,100720.02
2019-04-07T03:10:00.405Z,100719.44
2019-04-07T03:12:46.695Z,100720.57
2019-04-07T03:15:25.386Z,100715.86
2019-04-07T03:17:57.921Z,100717.98
2019-04-07T03:20:43.439Z,100715.73
2019-04-07T03:23:22.268Z,100724.15
2019-04-07T03:25:54.960Z,100726.73
2019-04-07T03:28:30.673Z,100723.38
2019-04-07T03:31:21.280Z,100719.09
2019-04-07T03:33:51.910Z,100724.09
2019-04-07T03:36:25.144Z,100723.55
2019-04-07T03:38:56.125Z,100725.28
2019-04-07T03:41:31.888Z,100719.30
2019-04-07T03:44:01.818Z,100726.09
2019-04-07T03:46:34.677Z,100722.13
2019-04-07T03:49:04.565Z,100718.31
2019-04-07T03:51:43.939Z,100716.37
2019-04-07T03:54:25.633Z,100721.94
2019-04-07T03:57:14.971Z,100719.45
2019-04-07T03:59:57.765Z,100720.36
2019-04-07T04:02:34.409Z,100715.55
2019-04-07T04:05:05.317Z,100720.12
2019-04-07T04:07:41.833Z,100713.38
2019-04-07T04:10:14.484Z,100717.58
2019-04-07T04:12:44.309Z,100718.77
2019-04-07T04:15:23.161Z,100714.70
2019-04-07T04:17:51.400Z,100714.97
2019-04-07T04:20:19.776Z,100718.81
2019-04-07T04:22:48.571Z,100716.95
2019-04-07T04:25:17.189Z,100719.67
2019-04-07T04:27:45.503Z,100724.73
2019-04-07T04:30:13.718Z,100726.36
2019-04-07T04:32:41.961Z,100720.92
2019-04-07T04:35:10.772Z,100728.58
2019-04-07T04:37:44.236Z,100730.17
2019-04-07T04:40:09.347Z,100730.56
2019-04-07T04:42:37.701Z,100735.37
2019-04-07T04:45:08.066Z,100741.89
2019-04-07T04:47:37.456Z,100738.32
2019-04-07T04:50:08.276Z,100738.15
2019-04-07T04:52:36.780Z,100732.58
2019-04-07T04:55:05.428Z,100739.37
2019-04-07T04:57:33.996Z,100736.30
2019-04-07T05:00:02.434Z,100744.94
2019-04-07T05:02:30.611Z,100742.72
2019-04-07T05:04:59.372Z,100743.59
2019-04-07T05:07:27.601Z,100752.36
2019-04-07T05:09:56.763Z,100752.59
2019-04-07T05:12:25.219Z,100753.22
2019-04-07T05:14:53.996Z,100755.31
2019-04-07T05:17:22.206Z,100757.03
2019-04-07T05:19:50.973Z,100752.46
2019-04-07T05:22:19.218Z,100757.03
2019-04-07T05:24:47.594Z,100760.84
2019-04-07T05:27:16.448Z,100760.61
2019-04-07T05:29:44.756Z,100764.55
2019-04-07T05:32:12.916Z,100769.63
2019-04-07T05:34:41.267Z,100764.91
2019-04-07T05:37:09.889Z,100767.50
2019-04-07T05:39:38.397Z,100766.47
2019-04-07T05:42:07.037Z,100774.88
2019-04-07T05:44:35.600Z,100778.56
2019-04-07T05:47:03.842Z,100777.43
2019-04-07T05:49:32.527Z,100778.16
2019-04-07T05:52:04.039Z,100777.65
2019-04-07T05:54:30.664Z,100786.03
2019-04-07T05:57:01.350Z,100788.56
2019-04-07T05:59:28.832Z,100790.14
2019-04-07T06:02:00.701Z,100791.12
2019-04-07T06:04:27.114Z,100802.87
2019-04-07T06:06:56.382Z,100805.80
2019-04-07T06:09:25.131Z,100804.42
2019-04-07T06:11:53.305Z,100807.22
2019-04-07T06:14:21.498Z,100803.64
2019-04-07T06:16:53.595Z,100807.58
2019-04-07T06:19:20.321Z,100805.58
2019-04-07T06:21:48.900Z,100804.76
2019-04-07T06:24:18.398Z,100812.29
2019-04-07T06:26:50.003Z,100806.51
2019-04-07T06:29:18.287Z,100804.98
2019-04-07T06:31:47.103Z,100800.68
2019-04-07T06:34:16.185Z,100803.69
2019-04-07T06:36:44.971Z,100802.18
2019-04-07T06:39:13.534Z,100806.33
2019-04-07T06:41:43.303Z,100811.22
2019-04-07T06:44:15.809Z,100808.33
2019-04-07T06:46:43.452Z,100807.86
2019-04-07T06:49:15.933Z,100808.75
2019-04-07T06:52:04.175Z,100812.36
2019-04-07T06:54:42.114Z,100812.56
2019-04-07T06:57:14.832Z,100813.70
2019-04-07T07:00:02.326Z,100819.98
2019-04-07T07:02:47.823Z,100815.66
2019-04-07T07:05:17.886Z,100807.25
2019-04-07T07:08:03.678Z,100811.84
2019-04-07T07:10:37.797Z,100819.64
2019-04-07T07:13:11.567Z,100818.18
2019-04-07T07:15:42.894Z,100818.25
2019-04-07T07:18:21.308Z,100818.50
2019-04-07T07:20:51.529Z,100819.14
2019-04-07T07:23:31.087Z,100812.73
2019-04-07T07:26:02.929Z,100817.75
2019-04-07T07:28:29.168Z,100822.48
2019-04-07T07:30:57.369Z,100822.39
2019-04-07T07:33:25.569Z,100827.78
2019-04-07T07:35:53.787Z,100829.92
2019-04-07T07:38:22.463Z,100832.75
2019-04-07T07:40:51.548Z,100821.83
2019-04-07T07:43:19.872Z,100826.05
2019-04-07T07:45:48.576Z,100826.63
2019-04-07T07:48:17.486Z,100827.19
2019-04-07T07:50:45.818Z,100824.17
2019-04-07T07:53:14.093Z,100823.20
2019-04-07T07:55:42.255Z,100828.58
2019-04-07T07:58:10.576Z,100827.59
2019-04-07T08:00:41.560Z,100827.64
2019-04-07T08:03:08.957Z,100831.44
2019-04-07T08:05:37.617Z,100828.21
2019-04-07T08:08:05.918Z,100829.61
2019-04-07T08:10:34.295Z,100831.52
2019-04-07T08:13:07.475Z,100817.97
2019-04-07T08:15:33.657Z,100822.80
2019-04-07T08:18:06.458Z,100822.96
2019-04-07T08:20:32.666Z,100826.90
2019-04-07T08:23:00.874Z,100827.40
2019-04-07T08:25:29.203Z,100819.66
2019-04-07T08:27:58.145Z,100825.44
2019-04-07T08:30:27.122Z,100817.16
2019-04-07T08:32:58.583Z,100820.19
2019-04-07T08:35:25.289Z,100821.67
2019-04-07T08:37:53.505Z,100820.02
2019-04-07T08:40:21.739Z,100814.39
2019-04-07T08:42:50.794Z,100818.97
2019-04-07T08:45:19.640Z,100820.48
2019-04-07T08:47:49.602Z,100815.94
2019-04-07T08:50:20.803Z,100819.30
2019-04-07T08:52:48.311Z,100814.55
2019-04-07T08:55:19.941Z,100822.75
2019-04-07T08:57:46.913Z,100829.08
2019-04-07T09:00:17.461Z,100830.34
2019-04-07T09:02:50.373Z,100826.80
2019-04-07T09:05:20.632Z,100820.37
2019-04-07T09:07:47.142Z,100827.01
2019-04-07T09:10:19.483Z,100826.97
2019-04-07T09:12:46.934Z,100821.17
2019-04-07T09:15:16.792Z,100822.22
2019-04-07T09:17:47.721Z,100826.16
2019-04-07T09:20:26.991Z,100824.62
2019-04-07T09:22:57.990Z,100824.45
2019-04-07T09:25:40.032Z,100822.84
2019-04-07T09:28:08.736Z,100824.38
2019-04-07T09:30:48.288Z,100829.72
2019-04-07T09:33:18.164Z,100833.59
2019-04-07T09:35:56.725Z,100834.33
2019-04-07T09:38:33.750Z,100841.44
2019-04-07T09:41:09.558Z,100840.87
2019-04-07T09:43:55.195Z,100848.19
2019-04-07T09:46:41.643Z,100842.04
2019-04-07T09:49:24.524Z,100846.79
2019-04-07T09:52:00.976Z,100847.95
2019-04-07T09:54:39.846Z,100844.95
2019-04-07T09:57:15.690Z,100845.39
2019-04-07T09:59:55.791Z,100842.91
2019-04-07T10:02:31.887Z,100844.58
2019-04-07T10:05:00.791Z,100838.08
2019-04-07T10:07:46.876Z,100843.29
2019-04-07T10:10:17.163Z,100841.44
2019-04-07T10:12:54.303Z,100839.89
2019-04-07T10:15:40.269Z,100833.34
2019-04-07T10:18:26.082Z,100839.96
2019-04-07T10:21:04.386Z,100836.11
2019-04-07T10:23:48.739Z,100834.42
2019-04-07T10:26:33.763Z,100829.77
2019-04-07T10:29:19.796Z,100831.16
2019-04-07T10:31:58.922Z,100827.89
2019-04-07T10:34:31.969Z,100824.80
2019-04-07T10:37:17.741Z,100826.32
2019-04-07T10:40:03.128Z,100826.42
2019-04-07T10:42:44.854Z,100824.67
2019-04-07T10:45:17.500Z,100826.50
2019-04-07T10:47:47.326Z,100825.62
2019-04-07T10:50:23.175Z,100824.98
2019-04-07T10:53:08.252Z,100828.83
2019-04-07T10:55:44.152Z,100822.34
2019-04-07T10:58:16.913Z,100814.14
2019-04-07T11:00:55.240Z,100822.55
2019-04-07T11:03:41.394Z,100817.34
2019-04-07T11:06:29.474Z,100817.87
2019-04-07T11:09:08.001Z,100822.24
2019-04-07T11:11:43.833Z,100814.33
2019-04-07T11:14:22.934Z,100809.84
2019-04-07T11:16:52.777Z,100811.69
2019-04-07T11:19:40.993Z,100817.32
2019-04-07T11:22:16.606Z,100817.64
2019-04-07T11:25:02.351Z,100816.58
2019-04-07T11:27:38.169Z,100812.59
2019-04-07T11:30:12.079Z,100816.45
2019-04-07T11:32:54.329Z,100819.56
2019-04-07T11:35:26.765Z,100830.58
2019-04-07T11:37:55.956Z,100822.35
2019-04-07T11:40:41.951Z,100820.13
2019-04-07T11:43:04.361Z,100823.86
2019-04-07T11:45:56.075Z,100826.11
2019-04-07T11:48:24.166Z,100825.76
2019-04-07T11:50:54.249Z,100824.61
2019-04-07T11:53:30.781Z,100822.45
2019-04-07T11:56:13.265Z,100825.23
2019-04-07T11:58:45.877Z,100818.62
2019-04-07T12:01:16.666Z,100833.55
2019-04-07T12:03:46.524Z,100825.54
2019-04-07T12:06:18.053Z,100827.55
2019-04-07T12:09:04.887Z,100826.67
2019-04-07T12:11:34.733Z,100826.71
2019-04-07T12:14:07.424Z,100819.42
2019-04-07T12:16:55.310Z,100821.80
2019-04-07T12:19:32.086Z,100832.23
2019-04-07T12:22:10.395Z,100824.29
2019-04-07T12:24:42.207Z,100821.84
2019-04-07T12:27:15.148Z,100824.45
2019-04-07T12:30:01.124Z,100812.99
2019-04-07T12:32:31.365Z,100818.47
2019-04-07T12:35:01.188Z,100818.43
2019-04-07T12:37:31.759Z,100820.19
2019-04-07T12:40:20.722Z,100821.41
2019-04-07T12:43:04.642Z,100818.70
2019-04-07T12:45:46.770Z,100823.92
2019-04-07T12:48:25.871Z,100820.35
2019-04-07T12:51:13.644Z,100814.70
2019-04-07T12:53:46.155Z,100818.27
2019-04-07T12:56:16.891Z,100819.54
2019-04-07T12:58:55.992Z,100817.30
2019-04-07T13:01:25.840Z,100822.10
2019-04-07T13:03:55.887Z,100816.25
2019-04-07T13:06:31.993Z,100822.00
2019-04-07T13:09:18.244Z,100813.53
2019-04-07T13:12:04.274Z,100811.34
2019-04-07T13:14:38.577Z,100812.56
2019-04-07T13:17:17.901Z,100804.14
2019-04-07T13:19:51.365Z,100810.59
2019-04-07T13:22:33.488Z,100817.52
2019-04-07T13:25:20.093Z,100803.40
2019-04-07T13:27:57.811Z,100805.32
2019-04-07T13:30:42.286Z,100806.64
2019-04-07T13:33:29.555Z,100806.53
2019-04-07T13:35:59.642Z,100803.23
2019-04-07T13:38:29.436Z,100810.95
2019-04-07T13:41:05.414Z,100806.16
2019-04-07T13:43:53.488Z,100803.36
2019-04-07T13:46:40.080Z,100798.35
2019-04-07T13:49:16.103Z,100804.56
2019-04-07T13:51:49.362Z,100806.16
2019-04-07T13:54:31.231Z,100801.89
2019-04-07T13:57:00.350Z,100804.03
2019-04-07T13:59:30.202Z,100803.61
2019-04-07T14:02:03.129Z,100807.77
2019-04-07T14:04:42.405Z,100806.77
2019-04-07T14:07:17.966Z,100807.84
2019-04-07T14:09:49.563Z,100800.09
2019-04-07T14:12:25.966Z,100804.99
2019-04-07T14:15:02.841Z,100802.86
2019-04-07T14:17:44.967Z,100799.77
2019-04-07T14:20:22.634Z,100794.22
2019-04-07T14:22:53.105Z,100795.83
2019-04-07T14:25:23.467Z,100791.45
2019-04-07T14:28:12.180Z,100799.02
2019-04-07T14:30:45.659Z,100795.23
2019-04-07T14:33:15.522Z,100794.59
2019-04-07T14:35:45.404Z,100790.55
2019-04-07T14:38:21.260Z,100796.77
2019-04-07T14:41:07.485Z,100794.53
2019-04-07T14:43:49.735Z,100796.77
2019-04-07T14:46:21.138Z,100791.23
2019-04-07T14:48:54.416Z,100800.56
2019-04-07T14:51:28.372Z,100793.42
2019-04-07T14:54:01.121Z,100787.34
2019-04-07T14:56:40.824Z,100790.53
2019-04-07T14:59:11.746Z,100791.60
2019-04-07T15:01:56.040Z,100785.64
2019-04-07T15:04:32.675Z,100792.03
2019-04-07T15:07:18.240Z,100793.97
2019-04-07T15:10:05.071Z,100789.37
2019-04-07T15:12:46.874Z,100792.70
2019-04-07T15:15:15.950Z,100786.72
2019-04-07T15:17:45.601Z,100791.83
2019-04-07T15:20:15.679Z,100787.23
2019-04-07T15:22:46.848Z,100791.31
2019-04-07T15:25:14.046Z,100791.31
2019-04-07T15:27:42.525Z,100789.92
2019-04-07T15:30:15.338Z,100787.16
2019-04-07T15:32:41.626Z,100789.61
2019-04-07T15:35:13.220Z,100792.47
2019-04-07T15:37:41.034Z,100787.88
2019-04-07T15:40:10.899Z,100788.63
2019-04-07T15:42:44.114Z,100789.80
2019-04-07T15:45:12.040Z,100798.03
2019-04-07T15:47:40.439Z,100799.20
2019-04-07T15:50:09.549Z,100793.22
2019-04-07T15:52:42.175Z,100795.46
2019-04-07T15:55:08.615Z,100794.70
2019-04-07T15:57:37.303Z,100795.55
2019-04-07T16:00:08.836Z,100796.72
2019-04-07T16:02:40.933Z,100797.89
2019-04-07T16:05:07.072Z,100801.47
2019-04-07T16:07:35.301Z,100807.31
2019-04-07T16:10:05.881Z,100802.69
2019-04-07T16:12:42.872Z,100807.98
2019-04-07T16:15:05.338Z,100806.34
2019-04-07T16:17:34.811Z,100807.46
2019-04-07T16:20:04.034Z,100810.33
2019-04-07T16:22:32.251Z,100812.72
2019-04-07T16:25:01.827Z,100814.35
2019-04-07T16:27:30.452Z,100814.03
2019-04-07T16:29:58.654Z,100814.59
2019-04-07T16:32:29.186Z,100817.19
2019-04-07T16:34:57.322Z,100814.19
2019-04-07T16:37:29.102Z,100815.27
2019-04-07T16:39:55.630Z,100811.97
2019-04-07T16:42:27.587Z,100811.15
2019-04-07T16:44:56.177Z,100815.92
2019-04-07T16:47:26.282Z,100812.27
2019-04-07T16:49:54.731Z,100817.73
2019-04-07T16:52:23.158Z,100812.61
2019-04-07T16:54:51.669Z,100814.73
2019-04-07T16:57:20.507Z,100804.23
2019-04-07T16:59:48.697Z,100813.73
2019-04-07T17:02:18.274Z,100817.19
2019-04-07T17:04:47.093Z,100813.63
2019-04-07T17:07:17.094Z,100811.34
2019-04-07T17:09:45.596Z,100815.75
2019-04-07T17:12:14.945Z,100813.92
2019-04-07T17:14:43.573Z,100819.37
2019-04-07T17:17:15.686Z,100821.67
2019-04-07T17:19:42.077Z,100819.79
2019-04-07T17:22:14.001Z,100827.28
2019-04-07T17:24:40.985Z,100822.31
2019-04-07T17:27:11.398Z,100825.28
2019-04-07T17:29:39.529Z,100826.34
2019-04-07T17:32:08.916Z,100835.62
2019-04-07T17:34:37.983Z,100833.67
2019-04-07T17:37:07.281Z,100828.62
2019-04-07T17:39:46.161Z,100830.09
2019-04-07T17:42:15.643Z,100832.59
2019-04-07T17:44:47.830Z,100831.67
2019-04-07T17:47:29.390Z,100828.82
2019-04-07T17:50:14.717Z,100829.50
2019-04-07T17:52:48.237Z,100834.02
2019-04-07T17:55:34.207Z,100835.45
2019-04-07T17:58:20.110Z,100836.22
2019-04-07T18:01:06.302Z,100842.19
2019-04-07T18:03:41.829Z,100843.64
2019-04-07T18:06:15.665Z,100846.95
2019-04-07T18:08:51.820Z,100845.50
2019-04-07T18:11:23.162Z,100851.53
2019-04-07T18:13:56.682Z,100848.65
2019-04-07T18:16:34.178Z,100861.25
2019-04-07T18:19:07.184Z,100862.62
2019-04-07T18:21:53.890Z,100873.31
2019-04-07T18:24:39.236Z,100869.38
2019-04-07T18:27:11.857Z,100867.19
2019-04-07T18:29:43.315Z,100872.36
2019-04-07T18:32:21.903Z,100874.97
2019-04-07T18:34:52.792Z,100874.81
2019-04-07T18:37:40.131Z,100883.24
2019-04-07T18:40:27.446Z,100884.44
2019-04-07T18:43:00.999Z,100887.03
2019-04-07T18:45:33.345Z,100883.42
2019-04-07T18:48:03.471Z,100895.45
2019-04-07T18:50:36.936Z,100894.20
2019-04-07T18:53:20.780Z,100890.23
2019-04-07T18:55:50.944Z,100894.50
2019-04-07T18:58:20.948Z,100897.91
2019-04-07T19:00:57.468Z,100895.63
2019-04-07T19:03:30.091Z,100903.83
2019-04-07T19:06:16.561Z,100904.30
2019-04-07T19:09:01.871Z,100911.80
2019-04-07T19:11:48.701Z,100906.63
2019-04-07T19:14:38.018Z,100909.33
2019-04-07T19:17:05.384Z,100907.77
2019-04-07T19:19:46.794Z,100915.27
2019-04-07T19:22:34.817Z,100914.73
2019-04-07T19:25:15.740Z,100922.89
2019-04-07T19:28:01.022Z,100926.59
2019-04-07T19:30:48.616Z,100922.44
2019-04-07T19:33:17.273Z,100921.52
2019-04-07T19:35:49.952Z,100916.80
2019-04-07T19:38:37.333Z,100914.70
2019-04-07T19:41:06.850Z,100914.05
2019-04-07T19:43:37.186Z,100915.72
2019-04-07T19:46:26.433Z,100912.90
2019-04-07T19:48:58.998Z,100917.95
2019-04-07T19:51:32.152Z,100924.94
2019-04-07T19:54:20.155Z,100919.30
2019-04-07T19:56:55.447Z,100923.12
2019-04-07T19:59:42.662Z,100918.39
2019-04-07T20:02:12.279Z,100919.64
2019-04-07T20:04:53.532Z,100921.19
2019-04-07T20:07:31.583Z,100918.70
2019-04-07T20:10:23.721Z,100927.12
2019-04-07T20:12:51.994Z,100931.86
2019-04-07T20:15:29.737Z,100940.14
2019-04-07T20:18:17.461Z,100931.89
2019-04-07T20:20:48.323Z,100939.40
2019-04-07T20:23:34.519Z,100933.07
2019-04-07T20:26:22.293Z,100933.07
2019-04-07T20:29:07.041Z,100941.20
2019-04-07T20:31:51.967Z,100933.31
2019-04-07T20:34:27.791Z,100936.39
2019-04-07T20:37:07.223Z,100942.33
2019-04-07T20:39:37.505Z,100934.91
2019-04-07T20:42:17.364Z,100931.55
2019-04-07T20:45:02.487Z,100942.17
2019-04-07T20:47:38.156Z,100942.84
2019-04-07T20:50:20.190Z,100937.95
2019-04-07T20:52:50.402Z,100940.36
2019-04-07T20:55:29.145Z,100944.72
2019-04-07T20:58:22.087Z,100946.27
2019-04-07T21:01:04.926Z,100951.05
2019-04-07T21:03:37.573Z,100952.02
2019-04-07T21:06:19.903Z,100947.44
2019-04-07T21:08:49.898Z,100945.10
2019-04-07T21:11:25.978Z,100951.48
2019-04-07T21:14:15.485Z,100958.11
2019-04-07T21:16:57.861Z,100951.84
2019-04-07T21:19:38.847Z,100957.19
2019-04-07T21:22:08.822Z,100954.81
2019-04-07T21:24:38.985Z,100958.61
2019-04-07T21:27:08.800Z,100964.30
2019-04-07T21:29:45.925Z,100968.90
2019-04-07T21:32:23.236Z,100971.19
2019-04-07T21:35:01.380Z,100973.86
2019-04-07T21:37:40.820Z,100973.34
2019-04-07T21:40:20.979Z,100971.95
2019-04-07T21:42:56.519Z,100977.34
2019-04-07T21:45:35.403Z,100971.59
2019-04-07T21:48:01.381Z,100968.72
2019-04-07T21:50:31.698Z,100965.92
2019-04-07T21:53:07.399Z,100966.47
2019-04-07T21:55:42.075Z,100969.85
2019-04-07T21:58:12.397Z,100971.80
2019-04-07T22:00:51.142Z,100970.98
2019-04-07T22:03:23.496Z,100970.26
2019-04-07T22:05:59.391Z,100976.36
2019-04-07T22:08:47.784Z,100978.23
2019-04-07T22:11:16.274Z,100985.80
2019-04-07T22:13:44.920Z,100980.28
2019-04-07T22:16:13.129Z,100979.92
2019-04-07T22:18:41.820Z,100985.08
2019-04-07T22:21:10.206Z,100988.56
2019-04-07T22:23:38.676Z,100991.94
2019-04-07T22:26:12.721Z,100985.55
2019-04-07T22:28:37.311Z,100982.48
2019-04-07T22:31:05.661Z,100981.05
2019-04-07T22:33:34.945Z,100989.51
2019-04-07T22:36:03.879Z,100978.50
2019-04-07T22:38:32.126Z,100981.42
2019-04-07T22:41:01.324Z,100981.73
2019-04-07T22:43:29.593Z,100978.14
2019-04-07T22:46:07.741Z,100977.30
2019-04-07T22:48:29.354Z,100979.67
2019-04-07T22:50:58.733Z,100981.89
2019-04-07T22:53:29.591Z,100979.22
2019-04-07T22:55:57.125Z,100985.47
2019-04-07T22:58:25.585Z,100980.30
2019-04-07T23:00:54.340Z,100973.13
2019-04-07T23:03:22.504Z,100976.49
2019-04-07T23:05:51.351Z,100980.30
2019-04-07T23:08:19.532Z,100976.86
2019-04-07T23:10:48.018Z,100978.21
2019-04-07T23:13:16.626Z,100981.97
2019-04-07T23:15:46.445Z,100974.14
2019-04-07T23:18:15.809Z,100974.20
2019-04-07T23:20:44.490Z,100969.88
2019-04-07T23:23:12.980Z,100981.15
2019-04-07T23:25:42.041Z,100984.23
2019-04-07T23:28:10.452Z,100979.50
2019-04-07T23:30:39.714Z,100980.78
2019-04-07T23:33:08.373Z,100981.39
2019-04-07T23:35:37.083Z,100979.95
2019-04-07T23:38:05.780Z,100979.08
2019-04-07T23:40:34.384Z,100974.14
2019-04-07T23:43:02.670Z,100979.45
2019-04-07T23:45:31.589Z,100979.81
2019-04-07T23:47:59.976Z,100983.67
2019-04-07T23:50:29.252Z,100982.45
2019-04-07T23:53:00.146Z,100975.91
2019-04-07T23:55:28.405Z,100981.97
2019-04-07T23:57:56.825Z,100978.36
